Time;durP1;ratioP1;P1;durP2;ratioP2;P2;SDS_P1;SDS_P2;PMS_P1;PMS_P2;Temp;Humidity;BMP_temperature;BMP_pressure;BME280_temperature;BME280_humidity;BME280_pressure;Samples;Min_cycle;Max_cycle;Signal;HPM_P1;HPM_P2
2023/08/22 00:01:55;;;;;;;;;;;;;;;24.00;nan;102184.19;5059496;28;19932;-79
2023/08/22 00:04:21;;;;;;;;;;;;;;;23.99;nan;102176.28;5057562;28;19920;-79
2023/08/22 00:06:46;;;;;;;;;;;;;;;23.99;nan;102165.34;5054871;28;19997;-79
2023/08/22 00:09:11;;;;;;;;;;;;;;;23.99;nan;102165.34;5055939;28;19924;-79
2023/08/22 00:11:37;;;;;;;;;;;;;;;23.97;nan;102178.53;5064411;28;19921;-79
2023/08/22 00:14:02;;;;;;;;;;;;;;;23.93;nan;102177.50;5062229;28;20280;-79
2023/08/22 00:16:27;;;;;;;;;;;;;;;23.87;nan;102179.53;5067748;28;19975;-79
2023/08/22 00:18:53;;;;;;;;;;;;;;;23.82;nan;102182.34;5060966;28;19916;-79
2023/08/22 00:21:18;;;;;;;;;;;;;;;23.79;nan;102183.78;5062376;28;19923;-79
2023/08/22 00:23:44;;;;;;;;;;;;;;;23.77;nan;102182.47;5064159;28;20054;-79
2023/08/22 00:26:09;;;;;;;;;;;;;;;23.75;nan;102182.78;5062735;28;20062;-79
2023/08/22 00:28:34;;;;;;;;;;;;;;;23.75;nan;102187.44;5065229;28;20019;-79
2023/08/22 00:31:00;;;;;;;;;;;;;;;23.73;nan;102186.94;5061890;28;20094;-79
2023/08/22 00:33:25;;;;;;;;;;;;;;;23.72;nan;102194.31;5066882;28;20376;-79
2023/08/22 00:35:50;;;;;;;;;;;;;;;23.69;nan;102177.69;5064796;28;19928;-79
2023/08/22 00:38:16;;;;;;;;;;;;;;;23.67;nan;102175.25;5066191;28;19916;-79
2023/08/22 00:40:41;;;;;;;;;;;;;;;23.62;nan;102174.53;5065631;28;19921;-79
2023/08/22 00:43:06;;;;;;;;;;;;;;;23.59;nan;102172.41;5064991;28;19925;-79
2023/08/22 00:45:32;;;;;;;;;;;;;;;23.58;nan;102166.13;5059255;28;19924;-79
2023/08/22 00:47:57;;;;;;;;;;;;;;;23.58;nan;102173.53;5063277;28;19916;-79
2023/08/22 00:50:22;;;;;;;;;;;;;;;23.56;nan;102162.84;5063437;28;19925;-79
2023/08/22 00:52:48;;;;;;;;;;;;;;;23.53;nan;102163.47;5066317;28;19916;-79
2023/08/22 00:55:13;;;;;;;;;;;;;;;23.47;nan;102153.69;5059183;28;19943;-79
2023/08/22 00:57:39;;;;;;;;;;;;;;;23.41;nan;102150.25;5065785;28;19967;-79
2023/08/22 01:00:06;;;;;;;;;;;;;;;23.39;nan;102157.13;5065450;28;20344;-80
2023/08/22 01:02:31;;;;;;;;;;;;;;;23.39;nan;102151.66;5061909;28;20042;-79
2023/08/22 01:04:57;;;;;;;;;;;;;;;23.37;nan;102156.63;5062579;28;20321;-79
2023/08/22 01:07:26;;;;;;;;;;;;;;;23.37;nan;102148.44;5060145;28;19924;-79
2023/08/22 01:10:04;;;;;;;;;;;;;;;23.36;nan;102157.75;5060272;28;19926;-79
2023/08/22 01:12:32;;;;;;;;;;;;;;;23.35;nan;102156.13;5060830;28;20327;-79
2023/08/22 01:15:06;;;;;;;;;;;;;;;23.32;nan;102151.22;5065252;28;19920;-79
2023/08/22 01:17:32;;;;;;;;;;;;;;;23.29;nan;102146.38;5055299;28;19920;-79
2023/08/22 01:19:58;;;;;;;;;;;;;;;23.27;nan;102151.31;5057309;28;20415;-79
2023/08/22 01:22:26;;;;;;;;;;;;;;;23.23;nan;102161.25;5059602;28;19935;-79
2023/08/22 01:24:52;;;;;;;;;;;;;;;23.18;nan;102157.50;5058312;28;20632;-79
2023/08/22 01:27:20;;;;;;;;;;;;;;;23.16;nan;102154.25;5060948;28;19925;-79
2023/08/22 01:29:50;;;;;;;;;;;;;;;23.14;nan;102148.25;5064720;28;20159;-79
2023/08/22 01:32:16;;;;;;;;;;;;;;;23.14;nan;102148.25;5060761;28;19917;-80
2023/08/22 01:34:41;;;;;;;;;;;;;;;23.12;nan;102145.00;5063664;28;20269;-79
2023/08/22 01:37:08;;;;;;;;;;;;;;;23.09;nan;102148.34;5058923;28;20189;-79
2023/08/22 01:39:35;;;;;;;;;;;;;;;23.05;nan;102149.25;5059561;28;19956;-80
2023/08/22 01:42:01;;;;;;;;;;;;;;;22.98;nan;102130.50;5061970;28;19933;-79
2023/08/22 01:44:28;;;;;;;;;;;;;;;22.94;nan;102139.56;5061996;28;19979;-79
2023/08/22 01:46:54;;;;;;;;;;;;;;;22.94;nan;102139.56;5059399;28;20014;-79
2023/08/22 01:49:19;;;;;;;;;;;;;;;22.95;nan;102147.47;5058342;28;20854;-79
2023/08/22 01:51:44;;;;;;;;;;;;;;;22.94;nan;102145.84;5064706;28;20312;-79
2023/08/22 01:54:10;;;;;;;;;;;;;;;22.90;nan;102142.91;5062436;28;20273;-79
2023/08/22 01:56:35;;;;;;;;;;;;;;;22.89;nan;102144.00;5060965;28;19997;-79
2023/08/22 01:59:00;;;;;;;;;;;;;;;22.88;nan;102147.84;5061888;28;19916;-79
2023/08/22 02:01:26;;;;;;;;;;;;;;;22.83;nan;102149.88;5065676;28;20512;-79
2023/08/22 02:03:51;;;;;;;;;;;;;;;22.74;nan;102141.47;5061721;28;19923;-79
2023/08/22 02:06:16;;;;;;;;;;;;;;;22.72;nan;102140.16;5059576;28;19924;-79
2023/08/22 02:08:42;;;;;;;;;;;;;;;22.67;nan;102138.31;5058122;28;19924;-79
2023/08/22 02:11:07;;;;;;;;;;;;;;;22.64;nan;102140.84;5061809;28;19929;-79
2023/08/22 02:13:33;;;;;;;;;;;;;;;22.59;nan;102150.69;5062530;28;19922;-79
2023/08/22 02:15:58;;;;;;;;;;;;;;;22.56;nan;102140.38;5062960;28;19925;-79
2023/08/22 02:18:24;;;;;;;;;;;;;;;22.52;nan;102139.34;5058974;28;19917;-79
2023/08/22 02:20:51;;;;;;;;;;;;;;;22.50;nan;102141.56;5061573;28;20721;-79
2023/08/22 02:23:17;;;;;;;;;;;;;;;22.50;nan;102146.22;5062286;28;19974;-79
2023/08/22 02:25:42;;;;;;;;;;;;;;;22.45;nan;102140.84;5062746;28;19927;-79
2023/08/22 02:28:07;;;;;;;;;;;;;;;22.44;nan;102130.97;5059920;28;20277;-79
2023/08/22 02:30:33;;;;;;;;;;;;;;;22.40;nan;102136.22;5057178;28;20393;-79
2023/08/22 02:32:58;;;;;;;;;;;;;;;22.36;nan;102151.59;5054722;28;19924;-79
2023/08/22 02:35:24;;;;;;;;;;;;;;;22.33;nan;102140.44;5061706;28;20455;-79
2023/08/22 02:37:49;;;;;;;;;;;;;;;22.34;nan;102140.16;5062519;28;19916;-79
2023/08/22 02:40:15;;;;;;;;;;;;;;;22.33;nan;102138.53;5055270;28;20388;-79
2023/08/22 02:42:40;;;;;;;;;;;;;;;22.35;nan;102132.75;5058634;28;20389;-79
2023/08/22 02:45:06;;;;;;;;;;;;;;;22.33;nan;102124.88;5060149;28;20391;-79
2023/08/22 02:47:31;;;;;;;;;;;;;;;22.36;nan;102116.09;5056810;28;19920;-79
2023/08/22 02:49:57;;;;;;;;;;;;;;;22.34;nan;102110.09;5058842;28;19936;-79
2023/08/22 02:52:22;;;;;;;;;;;;;;;22.31;nan;102106.06;5058891;28;20141;-79
2023/08/22 02:54:47;;;;;;;;;;;;;;;22.28;nan;102111.28;5061855;28;19917;-79
2023/08/22 02:57:13;;;;;;;;;;;;;;;22.28;nan;102116.75;5055829;28;20174;-79
2023/08/22 02:59:38;;;;;;;;;;;;;;;22.29;nan;102119.19;5059751;28;19917;-79
2023/08/22 03:02:03;;;;;;;;;;;;;;;22.33;nan;102119.41;5055460;28;20038;-79
2023/08/22 03:04:28;;;;;;;;;;;;;;;;;;5055474;28;19924;-79
2023/08/22 03:06:54;;;;;;;;;;;;;;;22.33;nan;102102.22;5054365;28;20006;-79
2023/08/22 03:09:19;;;;;;;;;;;;;;;;;;5058229;28;20363;-79
2023/08/22 03:11:44;;;;;;;;;;;;;;;22.35;nan;102106.28;5063116;28;20458;-79
2023/08/22 03:14:10;;;;;;;;;;;;;;;22.31;nan;102111.50;5060895;28;19960;-79
2023/08/22 03:16:35;;;;;;;;;;;;;;;22.26;nan;102116.22;5063965;28;19923;-79
2023/08/22 03:19:00;;;;;;;;;;;;;;;22.25;nan;102117.31;5058288;28;20332;-79
2023/08/22 03:21:25;;;;;;;;;;;;;;;22.26;nan;102114.31;5060372;28;20286;-79
2023/08/22 03:23:51;;;;;;;;;;;;;;;22.26;nan;102113.47;5058084;28;19970;-79
2023/08/22 03:26:16;;;;;;;;;;;;;;;22.26;nan;102118.94;5059159;28;19924;-79
2023/08/22 03:28:41;;;;;;;;;;;;;;;22.26;nan;102105.28;5056530;28;19916;-80
2023/08/22 03:31:07;;;;;;;;;;;;;;;22.28;nan;102105.84;5060975;28;19929;-79
2023/08/22 03:33:33;;;;;;;;;;;;;;;22.29;nan;102102.00;5059741;28;20007;-79
2023/08/22 03:35:59;;;;;;;;;;;;;;;22.31;nan;102103.31;5053086;28;20409;-79
2023/08/22 03:38:24;;;;;;;;;;;;;;;;;;5063797;28;19923;-79
2023/08/22 03:40:51;;;;;;;;;;;;;;;22.36;nan;102105.16;5062644;28;19924;-79
2023/08/22 03:43:17;;;;;;;;;;;;;;;22.37;nan;102112.25;5074154;28;20162;-79
2023/08/22 03:45:43;;;;;;;;;;;;;;;22.36;nan;102110.63;5063103;28;20003;-79
2023/08/22 03:48:09;;;;;;;;;;;;;;;22.38;nan;102116.59;5061041;28;19920;-79
2023/08/22 03:50:34;;;;;;;;;;;;;;;22.41;nan;102123.38;5064721;28;19928;-79
2023/08/22 03:52:59;;;;;;;;;;;;;;;22.42;nan;102116.81;5065107;28;20754;-79
2023/08/22 03:55:25;;;;;;;;;;;;;;;22.46;nan;102115.16;5064238;28;20433;-79
2023/08/22 03:57:50;;;;;;;;;;;;;;;22.49;nan;102120.00;5058587;28;19916;-79
2023/08/22 04:00:15;;;;;;;;;;;;;;;22.51;nan;102124.06;5061031;28;19944;-79
2023/08/22 04:02:41;;;;;;;;;;;;;;;22.52;nan;102122.16;5064304;28;19916;-79
2023/08/22 04:05:06;;;;;;;;;;;;;;;22.52;nan;102114.75;5064467;28;20238;-79
2023/08/22 04:07:32;;;;;;;;;;;;;;;22.53;nan;102121.84;5064035;28;20011;-79
2023/08/22 04:09:57;;;;;;;;;;;;;;;22.54;nan;102125.38;5065729;28;20296;-79
2023/08/22 04:12:22;;;;;;;;;;;;;;;22.55;nan;102116.09;5060724;28;20415;-79
2023/08/22 04:14:47;;;;;;;;;;;;;;;22.55;nan;102119.63;5067706;28;19927;-79
2023/08/22 04:17:13;;;;;;;;;;;;;;;22.59;nan;102119.84;5057962;28;19924;-79
2023/08/22 04:19:38;;;;;;;;;;;;;;;22.63;nan;102120.09;5056976;28;19916;-79
2023/08/22 04:22:04;;;;;;;;;;;;;;;22.66;nan;102114.03;5058842;28;19924;-79
2023/08/22 04:24:30;;;;;;;;;;;;;;;22.68;nan;102123.56;5064415;28;19966;-79
2023/08/22 04:26:56;;;;;;;;;;;;;;;22.68;nan;102129.00;5061631;28;19928;-79
2023/08/22 04:29:21;;;;;;;;;;;;;;;22.70;nan;102124.06;5059896;28;19924;-79
2023/08/22 04:31:46;;;;;;;;;;;;;;;22.74;nan;102116.06;5063842;28;19943;-79
2023/08/22 04:34:12;;;;;;;;;;;;;;;22.78;nan;102108.91;5058940;28;21045;-79
2023/08/22 04:36:37;;;;;;;;;;;;;;;22.81;nan;102103.69;5063121;28;19916;-79
2023/08/22 04:39:02;;;;;;;;;;;;;;;22.84;nan;102107.75;5061908;28;19991;-79
2023/08/22 04:41:28;;;;;;;;;;;;;;;22.86;nan;102100.06;5061163;28;19977;-79
2023/08/22 04:43:53;;;;;;;;;;;;;;;22.90;nan;102095.63;5059320;28;19920;-79
2023/08/22 04:46:19;;;;;;;;;;;;;;;22.94;nan;102093.91;5062812;28;19921;-79
2023/08/22 04:48:44;;;;;;;;;;;;;;;22.95;nan;102098.28;5060927;28;19962;-79
2023/08/22 04:51:09;;;;;;;;;;;;;;;22.98;nan;102091.38;5060823;28;20280;-79
2023/08/22 04:53:35;;;;;;;;;;;;;;;23.01;nan;102101.75;5060601;28;20434;-79
2023/08/22 04:56:00;;;;;;;;;;;;;;;23.04;nan;102095.69;5059584;28;20571;-79
2023/08/22 04:58:25;;;;;;;;;;;;;;;23.08;nan;102093.97;5059865;28;19920;-79
2023/08/22 05:00:51;;;;;;;;;;;;;;;23.12;nan;102098.53;5060170;28;19921;-79
2023/08/22 05:03:19;;;;;;;;;;;;;;;23.15;nan;102091.63;5060882;28;20345;-79
2023/08/22 05:05:44;;;;;;;;;;;;;;;23.19;nan;102096.22;5061285;28;19916;-79
2023/08/22 05:08:10;;;;;;;;;;;;;;;23.27;nan;102094.72;5059740;28;20431;-79
2023/08/22 05:10:35;;;;;;;;;;;;;;;23.39;nan;102078.63;5059908;28;19935;-79
2023/08/22 05:13:00;;;;;;;;;;;;;;;23.45;nan;102068.41;5062610;28;20365;-79
2023/08/22 05:15:25;;;;;;;;;;;;;;;23.55;nan;102059.19;5061925;28;19971;-79
2023/08/22 05:17:51;;;;;;;;;;;;;;;23.59;nan;102052.84;5058599;28;19924;-79
2023/08/22 05:20:16;;;;;;;;;;;;;;;23.65;nan;102040.66;5060142;28;19939;-79
2023/08/22 05:22:42;;;;;;;;;;;;;;;23.69;nan;102043.59;5059825;28;20347;-79
2023/08/22 05:25:07;;;;;;;;;;;;;;;23.73;nan;102041.91;5063873;28;20372;-79
2023/08/22 05:27:33;;;;;;;;;;;;;;;23.78;nan;102056.28;5063845;28;19931;-79
2023/08/22 05:29:58;;;;;;;;;;;;;;;23.85;nan;102066.00;5059960;28;19952;-79
2023/08/22 05:32:23;;;;;;;;;;;;;;;23.90;nan;102085.88;5063939;28;20394;-79
2023/08/22 05:34:48;;;;;;;;;;;;;;;23.95;nan;102088.50;5059872;28;19920;-79
2023/08/22 05:37:14;;;;;;;;;;;;;;;24.00;nan;102093.84;5061363;28;19920;-79
2023/08/22 05:39:39;;;;;;;;;;;;;;;24.04;nan;102081.16;5063763;28;19925;-79
2023/08/22 05:42:05;;;;;;;;;;;;;;;24.09;nan;102083.00;5059416;28;19975;-79
2023/08/22 05:44:32;;;;;;;;;;;;;;;24.14;nan;102066.47;5065395;28;19916;-79
2023/08/22 05:46:57;;;;;;;;;;;;;;;24.21;nan;102075.06;5061561;28;20285;-79
2023/08/22 05:49:22;;;;;;;;;;;;;;;24.27;nan;102073.03;5058975;28;19946;-79
2023/08/22 05:51:48;;;;;;;;;;;;;;;24.32;nan;102073.75;5062138;28;19921;-79
2023/08/22 05:54:13;;;;;;;;;;;;;;;24.37;nan;102068.13;5055105;28;20071;-79
2023/08/22 05:56:38;;;;;;;;;;;;;;;24.42;nan;102059.03;5058008;28;20513;-79
2023/08/22 05:59:04;;;;;;;;;;;;;;;24.46;nan;102056.47;5060261;28;20357;-79
2023/08/22 06:01:29;;;;;;;;;;;;;;;24.53;nan;102038.47;5058000;28;20151;-79
2023/08/22 06:03:54;;;;;;;;;;;;;;;24.59;nan;102048.16;5059022;28;19994;-79
2023/08/22 06:06:20;;;;;;;;;;;;;;;24.62;nan;102052.25;5057817;28;19917;-79
2023/08/22 06:08:45;;;;;;;;;;;;;;;24.64;nan;102063.69;5064663;28;19916;-79
2023/08/22 06:11:10;;;;;;;;;;;;;;;24.65;nan;102066.13;5060559;28;19935;-79
2023/08/22 06:13:36;;;;;;;;;;;;;;;24.66;nan;102064.19;5060855;28;19920;-79
2023/08/22 06:16:01;;;;;;;;;;;;;;;24.69;nan;102075.31;5058126;28;20312;-79
2023/08/22 06:18:26;;;;;;;;;;;;;;;24.77;nan;102089.41;5059515;28;19963;-79
2023/08/22 06:20:52;;;;;;;;;;;;;;;24.79;nan;102081.69;5059761;28;19970;-79
2023/08/22 06:23:17;;;;;;;;;;;;;;;24.79;nan;102074.28;5061043;28;19971;-79
2023/08/22 06:25:42;;;;;;;;;;;;;;;24.85;nan;102072.22;5062036;28;19947;-80
2023/08/22 06:28:08;;;;;;;;;;;;;;;24.93;nan;102076.94;5062558;28;19923;-79
2023/08/22 06:30:33;;;;;;;;;;;;;;;25.02;nan;102082.50;5060702;28;19988;-79
2023/08/22 06:32:58;;;;;;;;;;;;;;;25.05;nan;102084.63;5059670;28;19940;-79
2023/08/22 06:35:25;;;;;;;;;;;;;;;25.10;nan;102076.25;5057771;28;20395;-79
2023/08/22 06:37:50;;;;;;;;;;;;;;;25.20;nan;102074.06;5061309;28;19924;-79
2023/08/22 06:40:16;;;;;;;;;;;;;;;25.35;nan;102069.31;5062752;28;19978;-80
2023/08/22 06:42:41;;;;;;;;;;;;;;;25.46;nan;102067.88;5060088;28;19920;-79
2023/08/22 06:45:07;;;;;;;;;;;;;;;25.54;nan;102051.47;5058491;28;19922;-79
2023/08/22 06:47:32;;;;;;;;;;;;;;;25.64;nan;102038.56;5060648;28;20346;-79
2023/08/22 06:49:57;;;;;;;;;;;;;;;25.72;nan;102035.06;5055040;28;20442;-80
2023/08/22 06:52:22;;;;;;;;;;;;;;;25.79;nan;102035.41;5060281;28;19952;-79
2023/08/22 06:54:48;;;;;;;;;;;;;;;25.81;nan;102033.94;5063751;28;19931;-79
2023/08/22 06:57:13;;;;;;;;;;;;;;;25.81;nan;102044.94;5062849;28;19922;-80
2023/08/22 06:59:38;;;;;;;;;;;;;;;25.82;nan;102043.81;5061979;28;20604;-79
2023/08/22 07:02:04;;;;;;;;;;;;;;;25.86;nan;102041.25;5062058;28;19925;-79
2023/08/22 07:04:30;;;;;;;;;;;;;;;25.90;nan;102043.03;5059366;28;19947;-80
2023/08/22 07:06:55;;;;;;;;;;;;;;;26.01;nan;102048.19;5061457;28;20457;-80
2023/08/22 07:09:21;;;;;;;;;;;;;;;26.13;nan;102029.94;5063830;28;20402;-79
2023/08/22 07:11:46;;;;;;;;;;;;;;;26.28;nan;102016.88;5060795;28;20208;-79
2023/08/22 07:14:11;;;;;;;;;;;;;;;26.39;nan;102015.44;5056096;28;20220;-79
2023/08/22 07:16:36;;;;;;;;;;;;;;;26.54;nan;102012.19;5060465;28;19924;-79
2023/08/22 07:19:02;;;;;;;;;;;;;;;26.71;nan;102014.91;5055110;28;19932;-79
2023/08/22 07:21:27;;;;;;;;;;;;;;;26.87;nan;102019.88;5056506;28;20459;-80
2023/08/22 07:23:52;;;;;;;;;;;;;;;26.91;nan;102005.13;5060857;28;19925;-80
2023/08/22 07:26:18;;;;;;;;;;;;;;;26.99;nan;102006.25;5058722;28;20285;-79
2023/08/22 07:28:43;;;;;;;;;;;;;;;27.02;nan;102003.69;5062390;28;20363;-79
2023/08/22 07:31:08;;;;;;;;;;;;;;;27.06;nan;102006.56;5062807;28;20506;-80
2023/08/22 07:33:34;;;;;;;;;;;;;;;27.11;nan;102017.41;5060401;28;19979;-79
2023/08/22 07:36:00;;;;;;;;;;;;;;;27.18;nan;102022.41;5059816;28;20296;-79
2023/08/22 07:38:25;;;;;;;;;;;;;;;27.27;nan;102018.47;5064331;28;19916;-80
2023/08/22 07:40:51;;;;;;;;;;;;;;;27.29;nan;102021.72;5060677;28;20030;-79
2023/08/22 07:43:16;;;;;;;;;;;;;;;27.38;nan;102014.22;5056026;28;20312;-79
2023/08/22 07:45:41;;;;;;;;;;;;;;;27.50;nan;102015.44;5057718;28;19923;-79
2023/08/22 07:48:07;;;;;;;;;;;;;;;27.63;nan;102014.41;5059305;28;19931;-79
2023/08/22 07:50:33;;;;;;;;;;;;;;;27.72;nan;102023.44;5056594;28;19920;-79
2023/08/22 07:52:59;;;;;;;;;;;;;;;27.80;nan;102014.31;5055966;28;20011;-79
2023/08/22 07:55:25;;;;;;;;;;;;;;;27.88;nan;101999.69;5062453;28;20014;-80
2023/08/22 07:57:51;;;;;;;;;;;;;;;27.92;nan;101999.81;5060205;28;19917;-80
2023/08/22 08:00:17;;;;;;;;;;;;;;;27.93;nan;102013.25;5058049;28;19916;-79
2023/08/22 08:02:42;;;;;;;;;;;;;;;28.05;nan;102020.78;5059577;28;21124;-80
2023/08/22 08:05:08;;;;;;;;;;;;;;;28.15;nan;102034.13;5058609;28;20565;-80
2023/08/22 08:07:34;;;;;;;;;;;;;;;28.31;nan;102028.03;5061956;28;19916;-79
2023/08/22 08:09:59;;;;;;;;;;;;;;;28.40;nan;102035.09;5059471;28;20427;-80
2023/08/22 08:12:24;;;;;;;;;;;;;;;28.58;nan;102039.31;5059980;28;19959;-79
2023/08/22 08:14:50;;;;;;;;;;;;;;;28.75;nan;102034.78;5058177;28;19995;-80
2023/08/22 08:17:19;;;;;;;;;;;;;;;28.93;nan;102022.44;5061500;28;19920;-79
2023/08/22 08:19:44;;;;;;;;;;;;;;;29.09;nan;102020.63;5060386;28;19917;-80
2023/08/22 08:22:11;;;;;;;;;;;;;;;29.29;nan;102029.13;5057673;28;19927;-80
2023/08/22 08:24:36;;;;;;;;;;;;;;;29.48;nan;102037.69;5059486;28;19971;-80
2023/08/22 08:27:01;;;;;;;;;;;;;;;29.70;nan;102042.72;5059152;28;19997;-80
2023/08/22 08:29:27;;;;;;;;;;;;;;;29.89;nan;102030.25;5062957;28;19921;-80
2023/08/22 08:31:55;;;;;;;;;;;;;;;30.12;nan;102045.19;5064180;28;20024;-80
2023/08/22 08:34:20;;;;;;;;;;;;;;;30.27;nan;102036.16;5065141;28;19925;-80
2023/08/22 08:36:45;;;;;;;;;;;;;;;30.38;nan;102020.69;5064802;28;19978;-80
2023/08/22 08:39:11;;;;;;;;;;;;;;;30.56;nan;102003.78;5062562;28;20443;-80
2023/08/22 08:41:37;;;;;;;;;;;;;;;30.75;nan;101989.28;5060093;28;19920;-80
2023/08/22 08:44:03;;;;;;;;;;;;;;;30.91;nan;101992.88;5062363;28;19927;-80
2023/08/22 08:46:29;;;;;;;;;;;;;;;31.05;nan;101997.94;5060526;28;19917;-80
2023/08/22 08:48:55;;;;;;;;;;;;;;;31.18;nan;102010.56;5059210;28;19942;-80
2023/08/22 08:51:21;;;;;;;;;;;;;;;31.28;nan;102021.09;5061959;28;20846;-80
2023/08/22 08:53:47;;;;;;;;;;;;;;;31.46;nan;102007.69;5061269;28;19931;-80
2023/08/22 08:56:14;;;;;;;;;;;;;;;31.58;nan;102008.34;5061986;28;19963;-80
2023/08/22 08:58:39;;;;;;;;;;;;;;;31.66;nan;102011.28;5062336;28;19942;-80
2023/08/22 09:01:06;;;;;;;;;;;;;;;31.71;nan;102017.34;5061054;28;20463;-80
2023/08/22 09:03:31;;;;;;;;;;;;;;;31.71;nan;102020.13;5063935;28;19973;-80
2023/08/22 09:05:56;;;;;;;;;;;;;;;31.64;nan;102010.84;5059248;28;20308;-80
2023/08/22 09:08:23;;;;;;;;;;;;;;;31.58;nan;102008.34;5059023;28;19925;-80
2023/08/22 09:10:52;;;;;;;;;;;;;;;31.53;nan;102022.47;5062291;28;19931;-80
2023/08/22 09:13:27;;;;;;;;;;;;;;;31.48;nan;102028.31;5060398;28;20529;-80
2023/08/22 09:15:59;;;;;;;;;;;;;;;31.49;nan;102012.50;5059567;28;19916;-80
2023/08/22 09:18:25;;;;;;;;;;;;;;;31.49;nan;102013.28;5060305;28;19917;-80
2023/08/22 09:20:50;;;;;;;;;;;;;;;31.53;nan;102003.09;5053502;28;19936;-80
2023/08/22 09:23:33;;;;;;;;;;;;;;;31.62;nan;101993.78;5058826;28;19935;-80
2023/08/22 09:25:59;;;;;;;;;;;;;;;31.74;nan;101979.81;5055609;28;20368;-80
2023/08/22 09:28:25;;;;;;;;;;;;;;;31.86;nan;101980.50;5061200;28;19916;-80
2023/08/22 09:30:52;;;;;;;;;;;;;;;32.00;nan;101960.59;5059955;28;19928;-80
2023/08/22 09:33:18;;;;;;;;;;;;;;;32.08;nan;101959.56;5062688;28;20391;-80
2023/08/22 09:35:44;;;;;;;;;;;;;;;32.26;nan;101950.78;5061997;28;20126;-80
2023/08/22 09:38:13;;;;;;;;;;;;;;;32.50;nan;101957.97;5058936;28;19926;-80
2023/08/22 09:40:51;;;;;;;;;;;;;;;32.59;nan;101964.91;5063828;28;19920;-80
2023/08/22 09:43:18;;;;;;;;;;;;;;;32.63;nan;101959.41;5058289;28;19917;-80
2023/08/22 09:45:44;;;;;;;;;;;;;;;32.63;nan;101959.41;5057375;28;19931;-80
2023/08/22 09:48:13;;;;;;;;;;;;;;;32.72;nan;101957.22;5059027;28;19947;-80
2023/08/22 09:50:41;;;;;;;;;;;;;;;32.96;nan;101962.38;5055595;28;19924;-80
2023/08/22 09:53:06;;;;;;;;;;;;;;;33.14;nan;101962.66;5063719;28;19993;-80
2023/08/22 09:55:33;;;;;;;;;;;;;;;33.23;nan;101959.66;5064202;28;20388;-80
2023/08/22 09:57:59;;;;;;;;;;;;;;;33.25;nan;101960.88;5057024;28;19917;-80
2023/08/22 10:00:27;;;;;;;;;;;;;;;33.23;nan;101963.22;5060398;28;19916;-80
2023/08/22 10:02:54;;;;;;;;;;;;;;;33.19;nan;101970.69;5063730;28;19916;-80
2023/08/22 10:05:20;;;;;;;;;;;;;;;33.12;nan;101976.13;5059464;28;20415;-80
2023/08/22 10:07:45;;;;;;;;;;;;;;;33.03;nan;101968.03;5064695;28;19960;-80
2023/08/22 10:10:10;;;;;;;;;;;;;;;32.96;nan;101950.47;5064846;28;21416;-80
2023/08/22 10:12:37;;;;;;;;;;;;;;;32.88;nan;101957.09;5063874;28;19920;-80
2023/08/22 10:15:05;;;;;;;;;;;;;;;32.83;nan;101962.94;5060255;28;19928;-80
2023/08/22 10:17:31;;;;;;;;;;;;;;;32.73;nan;101976.25;5061881;28;19921;-80
2023/08/22 10:20:04;;;;;;;;;;;;;;;32.71;nan;101973.06;5059663;28;19928;-80
2023/08/22 10:22:33;;;;;;;;;;;;;;;32.69;nan;101972.63;5058923;28;20012;-80
2023/08/22 10:25:05;;;;;;;;;;;;;;;32.66;nan;101978.91;5057079;28;20189;-80
2023/08/22 10:27:31;;;;;;;;;;;;;;;32.63;nan;101976.88;5061368;28;19921;-80
2023/08/22 10:30:11;;;;;;;;;;;;;;;32.58;nan;101963.31;5059145;28;19970;-80
2023/08/22 10:32:37;;;;;;;;;;;;;;;32.54;nan;101962.44;5064327;28;19943;-80
2023/08/22 10:35:06;;;;;;;;;;;;;;;32.52;nan;101955.66;5061384;28;20277;-80
2023/08/22 10:37:32;;;;;;;;;;;;;;;32.47;nan;101951.19;5057792;28;19927;-80
2023/08/22 10:39:58;;;;;;;;;;;;;;;32.45;nan;101948.00;5059246;28;19920;-80
2023/08/22 10:42:23;;;;;;;;;;;;;;;32.42;nan;101945.97;5063523;28;19956;-80
2023/08/22 10:44:49;;;;;;;;;;;;;;;32.42;nan;101948.75;5057569;28;19917;-79
2023/08/22 10:47:19;;;;;;;;;;;;;;;32.40;nan;101940.00;5058770;28;20726;-80
2023/08/22 10:49:47;;;;;;;;;;;;;;;32.39;nan;101935.63;5061533;28;19917;-80
2023/08/22 10:52:13;;;;;;;;;;;;;;;32.39;nan;101933.66;5057288;28;20384;-80
2023/08/22 10:54:57;;;;;;;;;;;;;;;32.39;nan;101932.84;5062840;28;19927;-80
2023/08/22 10:57:22;;;;;;;;;;;;;;;32.40;nan;101940.00;5057178;28;19934;-80
2023/08/22 11:00:13;;;;;;;;;;;;;;;32.44;nan;101935.31;5060605;28;20324;-80
2023/08/22 11:02:39;;;;;;;;;;;;;;;32.45;nan;101943.25;5059983;28;20402;-80
2023/08/22 11:05:11;;;;;;;;;;;;;;;32.47;nan;101940.91;5059986;28;19940;-80
2023/08/22 11:07:40;;;;;;;;;;;;;;;32.46;nan;101944.84;5062319;28;20299;-80
2023/08/22 11:10:12;;;;;;;;;;;;;;;32.45;nan;101936.91;5059413;28;20094;-80
2023/08/22 11:12:38;;;;;;;;;;;;;;;32.49;nan;101939.75;5062230;28;19971;-80
2023/08/22 11:15:04;;;;;;;;;;;;;;;32.49;nan;101932.22;5061380;28;19948;-80
2023/08/22 11:17:30;;;;;;;;;;;;;;;32.53;nan;101935.88;5062299;28;20513;-80
2023/08/22 11:19:57;;;;;;;;;;;;;;;32.60;nan;101937.97;5052236;28;19916;-80
2023/08/22 11:22:22;;;;;;;;;;;;;;;32.71;nan;101933.41;5058079;28;20499;-80
2023/08/22 11:24:49;;;;;;;;;;;;;;;32.83;nan;101927.66;5057147;28;20171;-80
2023/08/22 11:27:15;;;;;;;;;;;;;;;32.91;nan;101925.81;5059078;28;20019;-80
2023/08/22 11:29:42;;;;;;;;;;;;;;;33.04;nan;101932.78;5073764;28;20028;-80
2023/08/22 11:32:24;;;;;;;;;;;;;;;33.14;nan;101931.31;5058461;28;19932;-80
2023/08/22 11:34:50;;;;;;;;;;;;;;;33.24;nan;101930.69;5058046;28;19924;-80
2023/08/22 11:37:16;;;;;;;;;;;;;;;33.24;nan;101930.69;5053496;28;19925;-80
2023/08/22 11:39:45;;;;;;;;;;;;;;;33.33;nan;101934.00;5054855;28;19982;-80
2023/08/22 11:42:10;;;;;;;;;;;;;;;33.40;nan;101936.91;5058769;28;19917;-80
2023/08/22 11:44:50;;;;;;;;;;;;;;;33.34;nan;101928.09;5057719;28;19978;-80
2023/08/22 11:47:16;;;;;;;;;;;;;;;33.34;nan;101928.09;5056564;28;20009;-80
2023/08/22 11:49:41;;;;;;;;;;;;;;;33.39;nan;101923.38;5055726;28;20377;-80
2023/08/22 11:52:07;;;;;;;;;;;;;;;33.46;nan;101929.03;5056430;28;19924;-80
2023/08/22 11:54:33;;;;;;;;;;;;;;;33.49;nan;101923.53;5058275;28;19956;-80
2023/08/22 11:56:59;;;;;;;;;;;;;;;33.45;nan;101933.00;5059497;28;20499;-80
2023/08/22 11:59:24;;;;;;;;;;;;;;;33.44;nan;101936.97;5064537;28;20005;-80
2023/08/22 12:01:50;;;;;;;;;;;;;;;33.38;nan;101936.47;5063827;28;19928;-80
2023/08/22 12:04:16;;;;;;;;;;;;;;;33.35;nan;101938.00;5060388;28;19920;-80
2023/08/22 12:06:41;;;;;;;;;;;;;;;33.35;nan;101924.13;5060445;28;20008;-80
2023/08/22 12:09:11;;;;;;;;;;;;;;;33.41;nan;101921.03;5061203;28;19943;-80
2023/08/22 12:11:36;;;;;;;;;;;;;;;33.48;nan;101921.13;5059181;28;20407;-80
2023/08/22 12:14:01;;;;;;;;;;;;;;;33.48;nan;101921.13;5060920;28;19946;-80
2023/08/22 12:16:27;;;;;;;;;;;;;;;33.48;nan;101921.13;5060857;28;19924;-80
2023/08/22 12:18:52;;;;;;;;;;;;;;;33.52;nan;101920.00;5057561;28;20379;-80
2023/08/22 12:21:18;;;;;;;;;;;;;;;33.51;nan;101926.72;5063261;28;20470;-80
2023/08/22 12:23:43;;;;;;;;;;;;;;;33.54;nan;101931.53;5057257;28;19924;-80
2023/08/22 12:26:08;;;;;;;;;;;;;;;33.59;nan;101935.97;5056417;28;20428;-80
2023/08/22 12:28:34;;;;;;;;;;;;;;;33.65;nan;101924.13;5053724;28;19936;-80
2023/08/22 12:30:59;;;;;;;;;;;;;;;33.73;nan;101927.78;5055671;28;19928;-80
2023/08/22 12:33:24;;;;;;;;;;;;;;;33.78;nan;101930.25;5056434;28;19921;-80
2023/08/22 12:35:50;;;;;;;;;;;;;;;33.79;nan;101925.50;5062610;28;19971;-80
2023/08/22 12:38:15;;;;;;;;;;;;;;;33.80;nan;101927.91;5056021;28;20721;-79
2023/08/22 12:40:40;;;;;;;;;;;;;;;33.85;nan;101927.59;5062600;28;19920;-80
2023/08/22 12:43:06;;;;;;;;;;;;;;;33.86;nan;101923.63;5058382;28;19924;-80
2023/08/22 12:45:31;;;;;;;;;;;;;;;33.85;nan;101913.69;5061900;28;19920;-80
2023/08/22 12:47:56;;;;;;;;;;;;;;;33.85;nan;101918.44;5058023;28;19920;-80
2023/08/22 12:50:23;;;;;;;;;;;;;;;33.86;nan;101912.50;5055866;28;19955;-80
2023/08/22 12:52:49;;;;;;;;;;;;;;;33.86;nan;101915.28;5056948;28;20289;-79